Time;durP1;ratioP1;P1;durP2;ratioP2;P2;SDS_P1;SDS_P2;PMS_P1;PMS_P2;Temp;Humidity;BMP_temperature;BMP_pressure;BME280_temperature;BME280_humidity;BME280_pressure;Samples;Min_cycle;Max_cycle;Signal;HPM_P1;HPM_P2
2020/12/09 00:33:02;;;;;;;22.73;7.25;;;;;;;-4.88;75.40;102215.63;1774380;80;21193;-88
2020/12/09 00:35:28;;;;;;;29.27;6.90;;;;;;;-4.74;75.23;102218.52;1755650;80;21110;-88
2020/12/09 00:37:54;;;;;;;22.30;6.95;;;;;;;-4.59;74.46;102209.42;1754486;80;21166;-88
2020/12/09 00:40:20;;;;;;;19.17;6.95;;;;;;;-4.54;73.71;102199.37;1757949;80;21104;-88
2020/12/09 00:42:45;;;;;;;23.83;6.83;;;;;;;-4.60;74.05;102199.38;1767696;80;26248;-89
2020/12/09 00:45:13;;;;;;;17.05;6.55;;;;;;;-4.74;74.59;102208.83;1760589;80;20994;-88
2020/12/09 00:47:40;;;;;;;18.98;6.37;;;;;;;-4.59;74.17;102202.39;1760439;80;21152;-88
2020/12/09 00:52:40;;;;;;;19.07;6.70;;;;;;;-4.48;73.74;102205.95;1760431;80;26203;-88
2020/12/09 00:55:07;;;;;;;23.30;5.90;;;;;;;-4.65;74.65;102216.48;1763285;80;21175;-89
2020/12/09 00:57:34;;;;;;;17.60;5.67;;;;;;;-4.16;72.99;102221.33;1766897;80;21156;-89
2020/12/09 01:00:00;;;;;;;21.07;6.62;;;;;;;-4.42;73.46;102214.67;1757067;80;21660;-88
2020/12/09 01:02:26;;;;;;;22.17;7.12;;;;;;;-4.43;73.64;102220.42;1758285;80;21189;-88
2020/12/09 01:04:51;;;;;;;16.60;6.30;;;;;;;-4.41;73.55;102220.28;1752250;81;21124;-88
2020/12/09 01:07:21;;;;;;;16.55;6.05;;;;;;;-4.32;73.56;102221.34;1767626;80;20923;-88
2020/12/09 01:09:47;;;;;;;18.65;6.70;;;;;;;-4.24;72.93;102226.36;1778706;80;21190;-89
2020/12/09 01:12:13;;;;;;;23.70;7.08;;;;;;;-4.27;73.33;102226.60;1733467;81;21081;-88
2020/12/09 01:14:42;;;;;;;19.92;7.03;;;;;;;-4.28;72.96;102230.20;1762201;80;21584;-88
2020/12/09 01:17:08;;;;;;;14.20;5.70;;;;;;;-3.83;72.10;102219.55;1768834;80;21570;-89
2020/12/09 01:19:34;;;;;;;18.40;6.15;;;;;;;-4.34;73.43;102217.54;1755719;80;21153;-88
2020/12/09 01:22:05;;;;;;;20.27;6.45;;;;;;;-3.92;72.43;102225.57;1748518;80;20954;-89
2020/12/09 01:24:34;;;;;;;16.62;6.25;;;;;;;-4.13;72.58;102219.77;1758853;80;21530;-88
2020/12/09 01:26:59;;;;;;;21.70;5.90;;;;;;;-4.20;73.02;102221.71;1764693;80;21168;-89
2020/12/09 01:29:26;;;;;;;16.60;5.62;;;;;;;-3.91;72.12;102226.78;1764827;80;21034;-88
2020/12/09 01:32:00;;;;;;;21.00;5.75;;;;;;;-3.98;72.29;102224.75;1761195;80;21125;-88
2020/12/09 01:34:29;;;;;;;17.27;6.00;;;;;;;-4.01;72.48;102230.27;1698336;83;21223;-88
2020/12/09 01:36:58;;;;;;;19.55;5.90;;;;;;;-4.02;72.26;102228.12;1700504;83;21637;-88
2020/12/09 01:39:23;;;;;;;16.10;5.42;;;;;;;-3.72;71.69;102245.02;1680534;84;21407;-88
2020/12/09 01:41:50;;;;;;;18.07;5.80;;;;;;;-4.13;73.30;102229.45;1707385;83;23140;-89
2020/12/09 01:44:15;;;;;;;17.67;6.10;;;;;;;-3.76;71.92;102224.69;1689694;83;21636;-88
2020/12/09 01:46:42;;;;;;;21.02;5.70;;;;;;;-3.54;71.19;102236.92;1688388;84;20978;-88
2020/12/09 01:49:10;;;;;;;17.55;5.60;;;;;;;-4.14;72.57;102229.95;1690067;84;21298;-89
2020/12/09 01:51:36;;;;;;;19.60;5.92;;;;;;;-4.04;72.83;102226.08;1708044;84;21184;-88
2020/12/09 01:54:02;;;;;;;16.45;5.60;;;;;;;-3.76;72.26;102231.77;1697134;83;22693;-89
2020/12/09 01:56:29;;;;;;;24.32;5.62;;;;;;;-3.85;71.99;102234.66;1702163;83;21152;-89
2020/12/09 01:58:55;;;;;;;15.10;5.80;;;;;;;-3.97;72.75;102236.49;1698555;84;21309;-89
2020/12/09 02:01:23;;;;;;;14.60;6.20;;;;;;;-3.64;71.98;102245.73;1706230;84;21144;-89
2020/12/09 02:03:50;;;;;;;23.90;6.25;;;;;;;-3.84;72.89;102236.33;1692684;83;21234;-89
2020/12/09 02:06:18;;;;;;;23.57;6.72;;;;;;;-3.53;72.44;102239.06;1697700;83;21181;-89
2020/12/09 02:08:45;;;;;;;22.10;6.92;;;;;;;-3.38;71.78;102242.23;1707933;84;21092;-89
2020/12/09 02:11:12;;;;;;;19.48;5.78;;;;;;;-3.29;71.17;102237.05;1715850;80;21096;-88
2020/12/09 02:13:48;;;;;;;16.27;5.45;;;;;;;-3.54;71.98;102239.55;1757524;80;21144;-90
2020/12/09 02:16:17;;;;;;;18.95;5.22;;;;;;;-3.66;72.22;102244.03;1750141;80;21391;-88
2020/12/09 02:18:42;;;;;;;14.78;4.97;;;;;;;-3.63;72.42;102241.63;1757015;80;21322;-88
2020/12/09 02:21:09;;;;;;;18.60;6.20;;;;;;;-3.70;72.83;102241.80;1765226;80;21025;-89
2020/12/09 02:23:35;;;;;;;23.38;6.37;;;;;;;-3.60;72.30;102251.09;1772073;80;21169;-89
2020/12/09 02:26:01;;;;;;;23.57;6.40;;;;;;;-3.27;71.57;102251.41;1763141;80;21118;-89
2020/12/09 02:28:27;;;;;;;24.15;5.90;;;;;;;-3.40;71.40;102253.41;1759316;80;22015;-88
2020/12/09 02:30:53;;;;;;;20.23;6.33;;;;;;;-3.71;72.51;102237.47;1749801;80;21674;-88
2020/12/09 02:33:19;;;;;;;17.20;4.83;;;;;;;-3.58;72.34;102251.32;1759829;80;21005;-89
2020/12/09 02:35:45;;;;;;;18.67;5.62;;;;;;;-3.49;71.28;102255.00;1747204;80;20958;-88
2020/12/09 02:38:11;;;;;;;14.20;5.58;;;;;;;-3.61;71.53;102262.59;1764096;80;21132;-88
2020/12/09 02:40:39;;;;;;;21.23;7.05;;;;;;;-3.93;72.62;102264.72;1754046;80;21184;-89
2020/12/09 02:43:05;;;;;;;20.52;5.70;;;;;;;-3.82;72.16;102273.91;1746458;80;21144;-89
2020/12/09 02:45:31;;;;;;;24.95;5.30;;;;;;;-4.02;71.99;102262.83;1755229;80;21156;-89
2020/12/09 02:47:57;;;;;;;19.23;5.20;;;;;;;-3.81;71.43;102270.31;1753576;80;21567;-88
2020/12/09 02:50:23;;;;;;;16.42;5.42;;;;;;;-3.71;71.13;102268.59;1750626;80;21061;-89
2020/12/09 02:52:48;;;;;;;20.60;5.92;;;;;;;-3.89;71.36;102274.03;1760682;80;21256;-89
2020/12/09 02:55:14;;;;;;;15.38;4.90;;;;;;;-3.76;71.27;102269.95;1754863;80;20950;-89
2020/12/09 02:57:40;;;;;;;12.07;4.90;;;;;;;-4.08;71.50;102273.86;1762132;80;21059;-88
2020/12/09 03:00:07;;;;;;;18.12;5.20;;;;;;;-4.20;71.56;102262.50;1770803;80;21017;-88
2020/12/09 03:02:33;;;;;;;15.88;5.58;;;;;;;-4.46;72.69;102272.45;1778627;80;21149;-88
2020/12/09 03:04:58;;;;;;;15.93;5.33;;;;;;;-4.29;72.34;102273.73;1749819;80;22338;-88
2020/12/09 03:07:24;;;;;;;19.40;6.40;;;;;;;-4.10;71.68;102272.64;1772549;80;21072;-89
2020/12/09 03:09:51;;;;;;;18.57;5.72;;;;;;;-3.67;70.64;102270.52;1765575;80;20977;-88
2020/12/09 03:15:57;;;;;;;18.95;5.47;;;;;;;-4.09;71.34;102272.99;1760661;80;21150;-88
2020/12/09 03:18:23;;;;;;;14.93;5.35;;;;;;;-4.11;71.45;102265.72;1751955;80;21580;-88
2020/12/09 03:20:49;;;;;;;23.00;5.97;;;;;;;-4.12;71.42;102291.21;1756161;80;21052;-88
2020/12/09 03:23:14;;;;;;;17.23;6.33;;;;;;;-4.23;71.76;102270.16;1770906;80;20974;-88
2020/12/09 03:25:40;;;;;;;15.28;5.67;;;;;;;-4.59;73.09;102276.03;1750829;80;21018;-88
2020/12/09 03:28:06;;;;;;;14.33;5.37;;;;;;;-4.48;73.05;102283.56;1752514;80;21651;-89
2020/12/09 03:30:32;;;;;;;15.83;5.03;;;;;;;-4.60;73.00;102284.03;1759496;80;21161;-88
2020/12/09 03:32:58;;;;;;;18.45;6.28;;;;;;;-4.58;72.74;102294.80;1745679;80;20954;-88
2020/12/09 03:35:23;;;;;;;18.87;6.17;;;;;;;-4.55;73.04;102287.16;1755341;80;21027;-88
2020/12/09 03:37:49;;;;;;;15.55;6.17;;;;;;;-4.70;73.47;102293.12;1754200;81;21606;-88
2020/12/09 03:40:15;;;;;;;17.67;5.87;;;;;;;-4.52;73.16;102286.08;1756691;80;20986;-88
2020/12/09 03:42:41;;;;;;;20.75;6.25;;;;;;;-4.64;73.21;102295.76;1752436;80;21537;-88
2020/12/09 03:45:07;;;;;;;16.10;5.40;;;;;;;-4.82;73.64;102286.17;1757853;81;21004;-88
2020/12/09 03:47:33;;;;;;;18.42;5.72;;;;;;;-4.21;72.01;102294.54;1768118;80;21049;-88
2020/12/09 03:49:59;;;;;;;18.12;5.65;;;;;;;-4.64;72.63;102286.06;1757622;80;21073;-89
2020/12/09 03:52:24;;;;;;;22.30;5.80;;;;;;;-4.70;73.17;102299.69;1698141;83;20934;-88
2020/12/09 03:54:50;;;;;;;20.77;6.17;;;;;;;-4.83;73.57;102288.42;1678438;83;21613;-88
2020/12/09 03:57:16;;;;;;;19.55;6.05;;;;;;;-4.68;73.12;102291.19;1697902;83;27160;-88
2020/12/09 03:59:42;;;;;;;15.00;5.95;;;;;;;-4.97;74.06;102297.83;1678932;83;21017;-88
2020/12/09 04:02:07;;;;;;;15.32;6.12;;;;;;;-4.91;73.93;102305.25;1704118;83;20967;-88
2020/12/09 04:04:33;;;;;;;24.43;7.33;;;;;;;-4.95;73.52;102303.81;1701770;83;21694;-88
2020/12/09 04:06:59;;;;;;;16.67;6.08;;;;;;;-4.87;73.15;102310.17;1696763;83;21898;-88
2020/12/09 04:09:25;;;;;;;19.62;5.53;;;;;;;-5.15;73.88;102307.45;1704123;83;21066;-88
2020/12/09 04:11:50;;;;;;;18.85;6.10;;;;;;;-5.48;75.31;102312.11;1699189;83;21073;-88
2020/12/09 04:16:42;;;;;;;16.02;6.22;;;;;;;-5.30;74.82;102309.91;1889113;76;22287;-89
2020/12/09 04:19:08;;;;;;;21.70;6.78;;;;;;;-5.55;75.98;102314.84;1859891;77;20880;-89
2020/12/09 04:21:34;;;;;;;17.42;6.10;;;;;;;-5.25;74.97;102294.17;1860009;77;21827;-89
2020/12/09 04:24:00;;;;;;;22.02;6.60;;;;;;;-5.55;75.93;102306.47;1822180;77;20935;-89
2020/12/09 04:26:26;;;;;;;16.82;5.47;;;;;;;-5.45;76.14;102304.00;1859955;77;20955;-90
2020/12/09 04:28:51;;;;;;;24.45;7.35;;;;;;;-5.74;76.50;102312.20;1859803;77;20920;-89
2020/12/09 04:31:17;;;;;;;16.82;6.17;;;;;;;-5.32;75.41;102324.97;1859841;77;21118;-89
2020/12/09 04:33:55;;;;;;;22.40;7.67;;;;;;;-5.60;76.62;102313.01;1859843;77;21241;-90
2020/12/09 04:36:22;;;;;;;20.82;7.28;;;;;;;-5.41;76.14;102301.53;1859724;77;21110;-89
2020/12/09 04:38:49;;;;;;;20.27;6.90;;;;;;;-5.71;77.57;102306.77;1859891;77;21130;-89
2020/12/09 04:41:16;;;;;;;18.77;6.05;;;;;;;-5.88;77.85;102307.59;1859841;77;21109;-89
2020/12/09 04:43:42;;;;;;;23.98;7.00;;;;;;;-5.59;77.47;102302.86;1859820;77;21198;-89
2020/12/09 04:46:08;;;;;;;20.37;7.50;;;;;;;-6.01;78.80;102306.35;1859666;77;21121;-89
2020/12/09 04:48:39;;;;;;;17.90;7.47;;;;;;;-5.70;78.35;102301.03;1859757;77;21566;-89
2020/12/09 04:51:35;;;;;;;19.80;6.70;;;;;;;-5.88;78.52;102305.83;1855669;77;21125;-89
2020/12/09 04:54:01;;;;;;;24.98;7.47;;;;;;;-5.97;79.14;102309.11;1853570;77;21097;-89
2020/12/09 05:00:11;;;;;;;18.30;7.35;;;;;;;-5.71;78.14;102316.41;1859935;77;21649;-88
2020/12/09 05:02:42;;;;;;;17.42;6.47;;;;;;;-5.33;77.08;102315.39;1859816;77;21170;-89
2020/12/09 05:05:13;;;;;;;20.20;7.42;;;;;;;-5.77;78.74;102316.37;1859897;77;21149;-89
2020/12/09 05:07:52;;;;;;;20.08;7.42;;;;;;;-5.60;78.26;102325.66;1779121;80;21195;-89
2020/12/09 05:10:22;;;;;;;19.50;7.75;;;;;;;-5.99;79.55;102315.80;1776013;80;21136;-89
2020/12/09 05:12:53;;;;;;;23.25;8.10;;;;;;;-5.98;79.96;102314.00;1779043;80;21175;-90
2020/12/09 05:15:23;;;;;;;23.87;7.75;;;;;;;-5.92;79.50;102325.83;1784194;79;21223;-89
2020/12/09 05:18:08;;;;;;;24.55;7.55;;;;;;;-6.08;80.59;102328.27;1796187;79;21225;-89
2020/12/09 05:20:38;;;;;;;24.52;8.25;;;;;;;-6.03;80.36;102325.30;1794702;79;21268;-88
2020/12/09 05:23:09;;;;;;;25.57;9.53;;;;;;;-6.07;80.52;102332.55;1796155;79;21160;-90
2020/12/09 05:25:38;;;;;;;24.15;8.25;;;;;;;-5.87;79.89;102328.97;1793137;79;21234;-89
2020/12/09 05:28:05;;;;;;;20.72;7.70;;;;;;;-5.89;79.89;102321.19;1795381;79;21171;-89
2020/12/09 05:30:48;;;;;;;26.33;8.35;;;;;;;-5.89;80.08;102321.19;1795460;79;21120;-89
2020/12/09 05:36:59;;;;;;;20.25;7.50;;;;;;;-5.83;79.99;102325.16;1795515;79;21108;-89
2020/12/09 05:39:25;;;;;;;22.17;7.58;;;;;;;-5.58;79.57;102330.34;1795605;79;21144;-89
2020/12/09 05:41:53;;;;;;;21.95;7.35;;;;;;;-5.69;79.33;102318.45;1795494;79;21085;-89
2020/12/09 05:44:22;;;;;;;19.85;6.47;;;;;;;-5.56;79.31;102326.27;1795515;79;21172;-89
2020/12/09 05:47:03;;;;;;;21.87;6.97;;;;;;;-5.69;80.27;102328.95;1795591;79;21186;-89
2020/12/09 05:49:36;;;;;;;23.92;6.55;;;;;;;-5.61;79.77;102326.62;1751034;81;21088;-89
2020/12/09 05:52:19;;;;;;;21.25;6.45;;;;;;;-5.46;79.34;102324.66;1750888;81;21167;-90
2020/12/09 05:54:47;;;;;;;;;;;;;;;-5.48;79.26;102323.93;1666941;86;21123;-90
2020/12/09 05:57:16;;;;;;;22.32;6.72;;;;;;;-4.89;77.35;102342.78;1664715;86;20263;-89
2020/12/09 05:59:45;;;;;;;24.95;7.22;;;;;;;-4.81;76.19;102324.65;1664569;86;21131;-89
2020/12/09 06:02:18;;;;;;;21.42;6.08;;;;;;;-4.23;74.71;102330.69;1664506;86;21587;-90
2020/12/09 06:04:47;;;;;;;20.75;6.53;;;;;;;-4.77;76.34;102326.56;1664825;86;21229;-90
2020/12/09 06:07:14;;;;;;;17.87;6.17;;;;;;;-3.43;73.44;102330.42;1609792;89;21202;-90
2020/12/09 06:10:01;;;;;;;22.75;7.10;;;;;;;-4.26;74.58;102323.04;1587978;89;21230;-90
2020/12/09 06:12:27;;;;;;;22.75;7.25;;;;;;;-4.15;74.45;102326.98;1636249;87;21189;-90
2020/12/09 06:15:15;;;;;;;28.45;7.55;;;;;;;-3.85;72.48;102315.44;1636291;87;21008;-89
2020/12/09 06:21:23;;;;;;;22.25;7.30;;;;;;;-3.15;69.53;102332.10;1635354;87;21620;-90
2020/12/09 06:23:52;;;;;;;19.07;6.12;;;;;;;-3.18;69.69;102325.77;1635619;87;21246;-91
2020/12/09 06:26:18;;;;;;;12.07;5.05;;;;;;;-2.88;68.00;102336.05;1650929;85;21227;-91
2020/12/09 06:28:48;;;;;;;14.85;5.20;;;;;;;-3.06;67.13;102331.83;1688319;85;21147;-90
2020/12/09 06:31:24;;;;;;;25.37;7.20;;;;;;;-3.36;68.44;102336.52;1636310;87;21413;-91
2020/12/09 06:33:52;;;;;;;21.73;7.05;;;;;;;-1.59;64.75;102336.32;1556296;92;21243;-91
2020/12/09 06:36:30;;;;;;;16.73;5.58;;;;;;;-1.98;65.09;102342.84;1556618;92;21196;-91
2020/12/09 06:39:16;;;;;;;23.00;7.42;;;;;;;-2.23;64.51;102338.86;1556372;92;21251;-91
2020/12/09 06:41:56;;;;;;;19.37;5.53;;;;;;;-2.48;64.34;102345.40;1556661;92;21714;-90
2020/12/09 06:44:29;;;;;;;16.93;5.05;;;;;;;-2.55;64.65;102349.54;1494810;94;21131;-90
2020/12/09 06:46:53;;;;;;;22.93;7.50;;;;;;;-3.25;66.82;102335.98;1495253;94;21259;-90
2020/12/09 06:49:35;;;;;;;24.35;7.85;;;;;;;-2.34;64.87;102335.82;1495502;94;21158;-90
2020/12/09 06:52:13;;;;;;;28.77;7.50;;;;;;;-2.39;65.89;102343.29;1532265;91;21199;-90
2020/12/09 06:58:29;;;;;;;37.08;7.22;;;;;;;-3.00;66.11;102354.59;1569813;88;21245;-90
2020/12/09 07:01:05;;;;;;;30.90;9.13;;;;;;;-3.51;67.95;102342.55;1590499;88;21183;-90
2020/12/09 07:03:37;;;;;;;32.38;8.15;;;;;;;-3.27;68.60;102334.44;1611713;84;21223;-90
2020/12/09 07:06:29;;;;;;;32.45;7.92;;;;;;;-3.42;69.15;102328.14;1686358;85;21192;-90
2020/12/09 07:08:55;;;;;;;33.20;8.88;;;;;;;-3.14;68.46;102335.60;1686328;85;21181;-90
2020/12/09 07:11:21;;;;;;;27.52;7.75;;;;;;;-2.42;66.69;102340.08;1686429;85;21150;-90
2020/12/09 07:13:47;;;;;;;26.27;7.05;;;;;;;-3.14;67.89;102336.44;1686309;85;20966;-90
2020/12/09 07:16:13;;;;;;;24.85;7.72;;;;;;;-3.18;68.14;102327.57;1682606;84;21009;-89
2020/12/09 07:18:40;;;;;;;25.37;7.62;;;;;;;-2.64;67.08;102338.45;1678756;85;21629;-90
2020/12/09 07:21:07;;;;;;;27.80;8.03;;;;;;;-2.68;67.51;102342.29;1706384;80;21607;-91
2020/12/09 07:23:36;;;;;;;22.90;6.87;;;;;;;-2.99;67.91;102337.79;1786724;80;21272;-90
2020/12/09 07:26:04;;;;;;;24.40;6.45;;;;;;;-3.10;68.78;102335.69;1760665;80;21092;-89
2020/12/09 07:28:33;;;;;;;32.70;8.30;;;;;;;-3.27;69.47;102336.59;1803417;77;21152;-89
2020/12/09 07:31:09;;;;;;;32.85;8.15;;;;;;;-2.55;67.84;102339.81;1859242;77;21574;-91
2020/12/09 07:33:35;;;;;;;40.17;9.38;;;;;;;-2.47;67.45;102338.31;1819260;78;21163;-89
2020/12/09 07:36:06;;;;;;;23.80;7.50;;;;;;;-2.40;67.92;102330.23;1819435;78;21471;-90
2020/12/09 07:38:32;;;;;;;26.02;6.50;;;;;;;-2.26;67.42;102352.80;1737576;82;21303;-90
2020/12/09 07:41:02;;;;;;;28.60;6.72;;;;;;;-2.60;67.59;102345.13;1737795;82;21128;-91
2020/12/09 07:43:29;;;;;;;70.10;9.85;;;;;;;-2.79;68.28;102353.77;1737783;82;21206;-90
2020/12/09 07:46:04;;;;;;;38.85;8.23;;;;;;;-2.53;68.00;102346.27;1737876;82;21163;-90
2020/12/09 07:48:32;;;;;;;28.00;6.78;;;;;;;-2.70;68.77;102345.56;1737833;82;21450;-88
2020/12/09 07:51:01;;;;;;;31.02;6.08;;;;;;;-2.66;68.45;102335.92;1737822;82;21604;-89
2020/12/09 07:53:27;;;;;;;25.68;5.97;;;;;;;-2.69;69.44;102351.19;1737744;82;21143;-89
2020/12/09 07:55:53;;;;;;;23.32;6.08;;;;;;;-2.47;69.22;102344.45;1737731;82;21822;-89
2020/12/09 07:58:19;;;;;;;28.45;7.05;;;;;;;-1.61;66.46;102333.00;1737865;82;21207;-90
2020/12/09 08:00:48;;;;;;;40.23;8.35;;;;;;;-0.76;64.45;102318.23;1737786;82;21238;-90
2020/12/09 08:03:24;;;;;;;28.55;7.17;;;;;;;-0.57;62.97;102323.46;1737679;82;21288;-90
2020/12/09 08:05:52;;;;;;;21.52;5.80;;;;;;;-0.25;62.03;102334.17;1735016;82;21135;-91
2020/12/09 08:10:51;;;;;;;20.72;4.85;;;;;;;-0.71;62.88;102339.33;1702590;84;21165;-90
2020/12/09 08:13:23;;;;;;;40.48;8.50;;;;;;;-1.24;64.11;102336.28;1679026;84;21146;-90
2020/12/09 08:16:08;;;;;;;40.78;7.12;;;;;;;0.04;61.44;102344.64;1702424;83;21110;-92
2020/12/09 08:22:14;;;;;;;40.10;9.50;;;;;;;-0.42;62.78;102328.30;1703042;83;21186;-90
2020/12/09 08:24:40;;;;;;;26.23;8.20;;;;;;;-0.48;62.83;102320.44;1723468;82;20983;-91
2020/12/09 08:27:20;;;;;;;28.50;7.80;;;;;;;-0.88;63.86;102325.95;1726919;81;21090;-92
2020/12/09 08:29:45;;;;;;;26.90;7.47;;;;;;;-0.99;64.50;102314.57;1727067;83;21622;-91
2020/12/09 08:32:12;;;;;;;33.25;7.12;;;;;;;-1.27;65.03;102318.05;1726990;83;21047;-92
2020/12/09 08:34:39;;;;;;;30.80;7.50;;;;;;;-1.39;65.81;102330.58;1738732;80;21111;-91
2020/12/09 08:37:16;;;;;;;18.75;5.78;;;;;;;-0.93;64.29;102322.43;1786214;80;21131;-91
2020/12/09 08:43:26;;;;;;;24.95;6.80;;;;;;;-1.24;65.17;102296.12;1786061;79;21163;-91
2020/12/09 08:45:53;;;;;;;21.60;5.95;;;;;;;-0.78;64.54;102311.74;1786200;80;21676;-91
2020/12/09 08:48:19;;;;;;;33.18;6.72;;;;;;;-1.09;64.75;102312.89;1786153;80;21647;-91
2020/12/09 08:54:25;;;;;;;36.68;8.18;;;;;;;-0.57;62.03;102308.91;1783340;80;21163;-90
2020/12/09 08:56:51;;;;;;;21.93;6.83;;;;;;;-0.96;63.42;102298.41;1783312;80;20953;-93
2020/12/09 09:02:57;;;;;;;28.27;6.10;;;;;;;-1.21;64.45;102298.98;1783510;80;21191;-93
2020/12/09 09:05:23;;;;;;;18.37;5.47;;;;;;;-0.65;63.02;102306.13;1783562;80;20989;-93
2020/12/09 09:11:30;;;;;;;22.15;6.20;;;;;;;-0.24;61.90;102298.28;1828864;78;21099;-92
2020/12/09 09:13:56;;;;;;;32.75;6.55;;;;;;;-0.43;62.38;102308.94;1810335;78;21177;-92
2020/12/09 09:16:24;;;;;;;26.07;6.35;;;;;;;-0.28;61.83;102297.38;1839319;76;21558;-91
2020/12/09 09:22:30;;;;;;;23.22;6.12;;;;;;;-0.20;62.19;102292.69;1828188;78;21199;-92
2020/12/09 09:28:36;;;;;;;23.38;6.75;;;;;;;-0.16;61.12;102284.28;1828504;78;21727;-93
2020/12/09 09:52:16;;;;;;;20.75;6.97;;;;;;;0.19;60.76;102268.11;1828442;78;21341;-90
2020/12/09 10:02:02;;;;;;;23.95;6.33;;;;;;;0.53;60.57;102263.45;1828483;78;21533;-93
2020/12/09 10:15:29;;;;;;;20.00;5.60;;;;;;;0.54;58.57;102259.83;1841053;77;21685;-94
2020/12/09 10:32:37;;;;;;;25.60;5.78;;;;;;;0.41;56.50;102242.95;1862962;77;21153;-93
2020/12/09 10:35:04;;;;;;;17.55;5.55;;;;;;;0.04;56.44;102228.53;1831748;77;20931;-94
2020/12/09 10:48:35;;;;;;;17.70;6.50;;;;;;;0.54;54.68;102226.18;1862858;77;21130;-93
2020/12/09 11:05:45;;;;;;;24.27;5.35;;;;;;;0.98;51.67;102217.38;1863159;77;21117;-94
2020/12/09 11:08:12;;;;;;;21.57;4.90;;;;;;;1.36;51.27;102187.71;1831815;77;21077;-93
2020/12/09 11:36:25;;;;;;;20.77;5.83;;;;;;;1.09;47.23;102196.71;1842437;77;21177;-94
2020/12/09 11:38:55;;;;;;;16.62;4.65;;;;;;;1.49;46.20;102182.44;1841905;77;21154;-93
2020/12/09 11:41:26;;;;;;;14.40;3.72;;;;;;;1.03;46.58;102179.23;1842675;77;21122;-94
2020/12/09 11:54:18;;;;;;;25.25;4.70;;;;;;;1.46;43.39;102174.80;1842336;77;21162;-94
2020/12/09 12:04:05;;;;;;;17.60;4.87;;;;;;;1.14;42.26;102178.46;1842438;77;21158;-93
2020/12/09 12:06:31;;;;;;;19.35;5.12;;;;;;;1.48;41.73;102170.98;1819164;77;21134;-93
2020/12/09 12:42:03;;;;;;;15.43;4.58;;;;;;;1.20;40.52;102178.33;1842749;77;21143;-92
2020/12/09 12:51:59;;;;;;;20.27;5.00;;;;;;;0.99;40.05;102186.69;1842189;77;21169;-92
2020/12/09 12:54:25;;;;;;;16.30;4.25;;;;;;;1.04;40.06;102191.53;1842120;77;21138;-93
2020/12/09 13:00:33;;;;;;;16.25;5.42;;;;;;;0.62;40.16;102187.78;1842048;77;21170;-93
2020/12/09 13:03:00;;;;;;;15.93;4.67;;;;;;;0.55;40.60;102198.66;1841970;77;21107;-93
2020/12/09 13:05:26;;;;;;;18.95;4.15;;;;;;;0.52;39.82;102202.11;1841980;77;21190;-93
2020/12/09 13:07:53;;;;;;;18.10;5.15;;;;;;;0.34;39.67;102191.03;1841928;77;21181;-94
2020/12/09 13:10:20;;;;;;;16.77;4.90;;;;;;;0.61;39.20;102198.53;1841814;77;21141;-93
2020/12/09 13:12:51;;;;;;;17.37;4.60;;;;;;;0.55;38.85;102197.83;1841750;77;21587;-92
2020/12/09 13:15:18;;;;;;;23.92;4.70;;;;;;;0.88;38.85;102194.91;1842021;77;21103;-93
2020/12/09 13:17:44;;;;;;;15.55;4.47;;;;;;;0.43;38.70;102194.09;1841958;77;21110;-92
2020/12/09 13:20:10;;;;;;;19.27;5.90;;;;;;;0.33;38.83;102198.66;1846180;77;21134;-92
2020/12/09 13:22:37;;;;;;;17.45;5.25;;;;;;;0.30;38.98;102202.11;1847449;77;21163;-91
2020/12/09 13:25:05;;;;;;;13.90;4.53;;;;;;;0.20;39.53;102206.14;1847618;77;21631;-91
2020/12/09 13:27:32;;;;;;;16.17;5.92;;;;;;;0.18;38.84;102210.78;1847831;77;21543;-93
2020/12/09 13:29:58;;;;;;;16.97;6.05;;;;;;;-0.01;38.92;102211.74;1843688;77;21566;-91
2020/12/09 13:32:24;;;;;;;16.35;4.90;;;;;;;0.23;38.57;102204.02;1847669;77;21138;-92
2020/12/09 13:34:50;;;;;;;20.40;5.22;;;;;;;-0.07;38.74;102216.31;1847780;77;21179;-93
2020/12/09 13:37:16;;;;;;;17.15;5.60;;;;;;;-0.32;39.23;102212.09;1847453;77;21010;-91
2020/12/09 13:39:44;;;;;;;22.13;5.65;;;;;;;0.02;38.79;102215.91;1847617;77;21031;-92
2020/12/09 13:45:51;;;;;;;27.32;7.60;;;;;;;-0.31;39.04;102210.27;1847677;77;21678;-91
2020/12/09 13:51:58;;;;;;;21.12;5.85;;;;;;;-0.09;38.65;102215.63;1847494;77;21217;-91
2020/12/09 13:57:29;;;;;;;32.28;6.62;;;;;;;0.01;38.31;102215.09;1847748;77;21657;-90
2020/12/09 14:02:25;;;;;;;20.80;6.53;;;;;;;-0.49;38.72;102216.34;1661984;86;21228;-90
2020/12/09 14:04:51;;;;;;;21.55;6.58;;;;;;;-0.28;38.85;102220.06;1662412;86;21288;-91
2020/12/09 14:07:17;;;;;;;20.25;5.65;;;;;;;-0.49;39.01;102220.81;1662253;86;21210;-91
2020/12/09 14:09:43;;;;;;;19.12;5.50;;;;;;;-0.53;39.23;102223.39;1662389;86;21178;-91
2020/12/09 14:12:09;;;;;;;15.60;5.47;;;;;;;-0.74;39.75;102220.97;1662463;86;20965;-91
2020/12/09 14:14:35;;;;;;;17.65;5.05;;;;;;;-0.78;39.69;102219.11;1662276;86;21267;-91
2020/12/09 14:17:03;;;;;;;17.52;4.97;;;;;;;-0.73;39.57;102224.81;1662051;86;21001;-91
2020/12/09 14:19:32;;;;;;;17.75;5.80;;;;;;;-0.70;40.06;102219.23;1662426;86;21632;-92
2020/12/09 14:21:57;;;;;;;20.92;6.45;;;;;;;-0.73;40.31;102219.52;1662190;86;21182;-91
2020/12/09 14:24:25;;;;;;;21.95;6.08;;;;;;;-0.80;40.30;102218.41;1662534;86;21223;-91
2020/12/09 14:26:51;;;;;;;22.30;5.95;;;;;;;-0.77;40.46;102222.09;1662451;86;21585;-91
2020/12/09 14:29:17;;;;;;;23.85;5.35;;;;;;;-0.73;40.45;102222.16;1662303;86;21202;-91
2020/12/09 14:31:51;;;;;;;26.73;5.22;;;;;;;-0.86;40.84;102224.78;1662340;86;21763;-90
2020/12/09 14:34:19;;;;;;;23.75;5.12;;;;;;;-1.05;41.27;102226.51;1738750;81;21143;-92
2020/12/09 14:36:50;;;;;;;23.95;5.37;;;;;;;-1.12;41.60;102225.39;1755647;80;21211;-92
2020/12/09 14:39:17;;;;;;;23.95;5.45;;;;;;;-1.09;41.68;102222.46;1755506;81;21354;-92
2020/12/09 14:41:45;;;;;;;23.00;5.45;;;;;;;-1.07;42.04;102221.84;1755568;80;21227;-91
2020/12/09 14:44:13;;;;;;;24.43;5.60;;;;;;;-1.20;42.54;102214.72;1755514;80;21580;-92
2020/12/09 14:46:43;;;;;;;20.20;6.12;;;;;;;-1.26;43.00;102216.61;1755466;80;21489;-91
2020/12/09 14:49:10;;;;;;;23.67;5.78;;;;;;;-1.19;43.40;102213.23;1755427;80;21156;-92
2020/12/09 14:51:41;;;;;;;24.70;6.28;;;;;;;-1.25;43.73;102211.66;1755541;80;21320;-90
2020/12/09 14:54:04;;;;;;;21.02;5.50;;;;;;;-1.02;43.61;102211.67;1751510;80;21157;-90
2020/12/09 14:56:30;;;;;;;18.75;5.53;;;;;;;-1.14;44.34;102211.50;1755476;81;20969;-91
2020/12/09 14:58:56;;;;;;;21.55;5.78;;;;;;;-1.25;44.90;102219.59;1707348;84;21240;-90
2020/12/09 15:01:24;;;;;;;21.45;6.75;;;;;;;-1.26;45.36;102216.61;1683511;84;21054;-90
2020/12/09 15:03:50;;;;;;;19.95;6.90;;;;;;;-1.28;45.66;102227.80;1707411;84;21957;-91
2020/12/09 15:06:17;;;;;;;23.87;7.05;;;;;;;-1.19;45.85;102229.10;1772031;79;21645;-88
2020/12/09 15:08:44;;;;;;;19.95;7.15;;;;;;;-1.25;46.11;102226.20;1798666;79;21166;-89
2020/12/09 15:11:27;;;;;;;22.77;6.60;;;;;;;-1.26;46.35;102226.69;1798551;79;21161;-89
2020/12/09 15:13:54;;;;;;;17.40;6.70;;;;;;;-1.33;46.76;102232.19;1798953;79;21123;-89
2020/12/09 15:16:23;;;;;;;20.85;6.78;;;;;;;-1.41;47.14;102242.16;1798641;79;21132;-89
2020/12/09 15:18:50;;;;;;;20.15;7.33;;;;;;;-1.47;47.63;102233.92;1798783;79;21172;-90
2020/12/09 15:21:17;;;;;;;23.50;7.97;;;;;;;-1.46;47.70;102229.84;1798820;79;21630;-90
2020/12/09 15:23:45;;;;;;;26.52;8.50;;;;;;;-1.40;47.56;102235.05;1826183;77;21535;-90
2020/12/09 15:26:11;;;;;;;23.45;7.15;;;;;;;-1.39;47.91;102233.58;1847523;77;21562;-90
2020/12/09 15:28:37;;;;;;;21.50;5.92;;;;;;;-1.28;47.72;102232.60;1847407;77;21193;-90
2020/12/09 15:31:04;;;;;;;24.40;5.95;;;;;;;-1.40;48.19;102234.56;1847434;77;21153;-89
2020/12/09 15:33:30;;;;;;;18.10;6.12;;;;;;;-1.35;48.28;102228.86;1838591;77;21599;-90
2020/12/09 15:35:56;;;;;;;22.30;7.45;;;;;;;-1.60;48.78;102218.36;1847896;77;21129;-90
2020/12/09 15:38:22;;;;;;;19.77;5.75;;;;;;;-1.56;49.00;102221.55;1852595;77;21160;-91
2020/12/09 15:40:48;;;;;;;20.48;5.92;;;;;;;-1.78;49.53;102217.39;1839762;77;21226;-93
2020/12/09 15:43:16;;;;;;;18.85;5.90;;;;;;;-1.81;49.75;102221.64;1835913;77;20879;-93
2020/12/09 15:45:42;;;;;;;20.30;6.15;;;;;;;-1.87;50.06;102233.09;1837935;77;21598;-91
2020/12/09 15:48:08;;;;;;;21.87;6.72;;;;;;;-1.95;50.40;102232.94;1831584;77;21168;-90